Time;durP1;ratioP1;P1;durP2;ratioP2;P2;SDS_P1;SDS_P2;PMS_P1;PMS_P2;Temp;Humidity;BMP_temperature;BMP_pressure;BME280_temperature;BME280_humidity;BME280_pressure;Samples;Min_cycle;Max_cycle;Signal;HPM_P1;HPM_P2
2021/07/17 00:01:32;;;;;;;22.85;14.93;;;25.90;74.60;;;;;;5015749;28;20022;-43
2021/07/17 00:03:57;;;;;;;17.27;14.98;;;25.90;75.00;;;;;;5015427;28;20030;-36
2021/07/17 00:06:23;;;;;;;16.42;14.70;;;25.90;75.20;;;;;;5015625;28;20026;-38
2021/07/17 00:08:50;;;;;;;14.98;13.38;;;25.90;75.20;;;;;;5015230;28;20073;-38
2021/07/17 00:11:17;;;;;;;22.15;16.52;;;25.90;75.40;;;;;;5015691;28;20026;-43
2021/07/17 00:13:43;;;;;;;22.80;16.73;;;26.00;75.60;;;;;;5015283;28;20045;-36
2021/07/17 00:16:09;;;;;;;17.27;14.60;;;25.90;75.80;;;;;;5015311;28;20037;-36
2021/07/17 00:18:34;;;;;;;18.75;15.73;;;25.90;75.90;;;;;;5014935;28;20058;-36
2021/07/17 00:21:00;;;;;;;20.88;15.20;;;26.00;76.10;;;;;;5016742;28;20045;-43
2021/07/17 00:23:26;;;;;;;18.38;14.73;;;25.90;75.90;;;;;;5018726;28;20419;-36
2021/07/17 00:25:55;;;;;;;17.27;14.38;;;25.90;76.30;;;;;;5018765;28;20029;-42
2021/07/17 00:28:21;;;;;;;18.45;14.82;;;25.90;75.90;;;;;;5018901;28;20342;-36
2021/07/17 00:30:47;;;;;;;18.92;15.20;;;25.90;75.80;;;;;;5018909;28;20026;-36
2021/07/17 00:33:13;;;;;;;22.98;15.88;;;25.90;75.80;;;;;;5018709;28;20041;-36
2021/07/17 00:35:39;;;;;;;22.48;16.40;;;25.90;75.50;;;;;;5018377;28;20399;-42
2021/07/17 00:38:05;;;;;;;24.10;17.85;;;25.90;75.50;;;;;;5018483;28;20408;-42
2021/07/17 00:40:32;;;;;;;18.23;16.02;;;25.90;75.50;;;;;;5018628;28;20036;-43
2021/07/17 00:42:58;;;;;;;23.88;16.60;;;25.90;75.50;;;;;;5018663;28;20402;-41
2021/07/17 00:45:24;;;;;;;18.58;16.67;;;25.90;75.50;;;;;;5017101;28;20030;-42
2021/07/17 00:47:50;;;;;;;18.10;15.25;;;25.80;75.90;;;;;;5018562;28;20038;-36
2021/07/17 00:50:17;;;;;;;19.85;15.75;;;25.80;75.40;;;;;;5018300;28;20061;-40
2021/07/17 00:52:43;;;;;;;23.70;18.67;;;25.80;75.50;;;;;;5018350;28;20033;-36
2021/07/17 00:55:10;;;;;;;22.73;16.95;;;25.80;75.40;;;;;;5018149;28;20380;-42
2021/07/17 00:57:37;;;;;;;19.77;17.70;;;25.80;75.30;;;;;;5018254;28;20042;-36
2021/07/17 01:00:09;;;;;;;21.83;16.60;;;25.70;75.40;;;;;;5017583;28;20021;-36
2021/07/17 01:02:38;;;;;;;17.33;15.30;;;25.70;75.70;;;;;;5018216;28;20026;-42
2021/07/17 01:05:06;;;;;;;20.90;15.43;;;25.70;75.80;;;;;;5017728;28;20056;-42
2021/07/17 01:07:33;;;;;;;22.95;17.67;;;25.70;75.80;;;;;;5018079;28;20038;-42
2021/07/17 01:09:58;;;;;;;19.35;16.92;;;25.70;75.80;;;;;;5017649;28;20076;-36
2021/07/17 01:12:24;;;;;;;19.30;16.52;;;25.60;75.80;;;;;;5018091;28;20315;-42
2021/07/17 01:14:50;;;;;;;18.85;16.58;;;25.60;75.80;;;;;;5017404;28;20100;-36
2021/07/17 01:17:15;;;;;;;19.15;16.05;;;25.60;76.00;;;;;;5018077;28;20034;-36
2021/07/17 01:19:42;;;;;;;20.25;16.63;;;25.60;76.20;;;;;;5017742;28;20029;-37
2021/07/17 01:22:07;;;;;;;18.88;16.85;;;25.60;76.00;;;;;;5018066;28;20022;-42
2021/07/17 01:24:33;;;;;;;21.05;17.17;;;25.60;76.10;;;;;;5017825;28;20335;-36
2021/07/17 01:27:00;;;;;;;24.73;17.55;;;25.60;75.90;;;;;;5017614;28;20029;-36
2021/07/17 01:29:25;;;;;;;19.88;17.63;;;25.50;75.80;;;;;;5017772;28;20041;-40
2021/07/17 01:31:52;;;;;;;19.92;17.05;;;25.50;76.40;;;;;;5017049;28;20030;-42
2021/07/17 01:34:18;;;;;;;20.20;16.05;;;25.50;76.00;;;;;;5017306;28;20148;-41
2021/07/17 01:36:45;;;;;;;20.58;16.98;;;25.50;76.00;;;;;;5017542;28;20485;-37
2021/07/17 01:39:11;;;;;;;17.98;16.17;;;25.50;75.90;;;;;;5016785;28;20326;-42
2021/07/17 01:41:37;;;;;;;19.30;16.02;;;25.50;76.00;;;;;;5017661;28;20026;-42
2021/07/17 01:44:04;;;;;;;18.80;16.27;;;25.40;76.00;;;;;;5017049;28;20034;-36
2021/07/17 01:46:30;;;;;;;19.15;16.30;;;25.40;76.00;;;;;;5017615;28;20485;-36
2021/07/17 01:48:57;;;;;;;17.33;15.30;;;25.40;76.10;;;;;;5017280;28;20361;-36
2021/07/17 01:51:23;;;;;;;16.55;14.32;;;25.40;76.20;;;;;;5017256;28;20025;-40
2021/07/17 01:53:55;;;;;;;16.88;14.73;;;25.40;76.30;;;;;;5017253;28;20038;-36
2021/07/17 01:56:21;;;;;;;20.58;15.30;;;25.40;76.40;;;;;;5017049;28;20029;-36
2021/07/17 01:58:49;;;;;;;19.10;14.32;;;25.40;76.40;;;;;;5017070;28;20032;-36
2021/07/17 02:01:15;;;;;;;17.20;13.73;;;25.40;76.40;;;;;;5017294;28;20105;-42
2021/07/17 02:03:45;;;;;;;18.08;14.90;;;25.40;76.40;;;;;;5017110;28;20295;-40
2021/07/17 02:06:11;;;;;;;20.55;15.30;;;25.40;76.60;;;;;;5016861;28;20034;-36
2021/07/17 02:08:38;;;;;;;21.63;15.75;;;25.40;76.60;;;;;;5017109;28;20054;-36
2021/07/17 02:11:05;;;;;;;19.02;15.10;;;25.40;76.80;;;;;;5017078;28;20425;-42
2021/07/17 02:13:31;;;;;;;23.55;14.75;;;25.30;76.90;;;;;;5016777;28;20096;-37
2021/07/17 02:15:57;;;;;;;19.17;14.68;;;25.40;76.90;;;;;;5016470;28;20155;-40
2021/07/17 02:18:24;;;;;;;18.00;13.60;;;25.40;76.90;;;;;;5016677;28;20041;-36
2021/07/17 02:20:50;;;;;;;19.38;15.68;;;25.40;77.00;;;;;;5017290;28;20037;-36
2021/07/17 02:23:16;;;;;;;21.27;15.48;;;25.40;77.20;;;;;;5016753;28;20299;-42
2021/07/17 02:25:42;;;;;;;19.33;15.18;;;25.40;77.10;;;;;;5016903;28;20036;-40
2021/07/17 02:28:08;;;;;;;17.27;15.40;;;25.40;77.10;;;;;;5016739;28;20034;-42
2021/07/17 02:30:34;;;;;;;17.85;15.80;;;25.40;77.20;;;;;;5016635;28;20030;-37
2021/07/17 02:32:59;;;;;;;19.52;16.13;;;25.40;77.30;;;;;;5016856;28;20424;-42
2021/07/17 02:35:25;;;;;;;20.13;15.90;;;25.40;77.30;;;;;;5016225;28;20292;-36
2021/07/17 02:37:51;;;;;;;18.13;15.95;;;25.40;77.30;;;;;;5016505;28;20042;-36
2021/07/17 02:40:18;;;;;;;19.45;16.00;;;25.40;77.50;;;;;;5016309;28;20030;-36
2021/07/17 02:42:43;;;;;;;22.63;18.27;;;25.40;77.50;;;;;;5016391;28;20069;-40
2021/07/17 02:45:11;;;;;;;20.15;16.40;;;25.40;78.10;;;;;;5016040;28;20057;-36
2021/07/17 02:47:36;;;;;;;19.00;17.00;;;25.40;77.60;;;;;;5016425;28;20034;-36
2021/07/17 02:50:03;;;;;;;22.35;16.73;;;25.40;77.70;;;;;;5016146;28;20388;-43
2021/07/17 02:52:30;;;;;;;20.58;17.02;;;25.40;77.60;;;;;;5016375;28;20046;-44
2021/07/17 02:54:56;;;;;;;22.55;16.60;;;25.50;77.60;;;;;;5016138;28;20295;-45
2021/07/17 02:57:21;;;;;;;22.00;16.55;;;25.40;77.50;;;;;;5016108;28;20397;-36
2021/07/17 02:59:47;;;;;;;22.88;17.33;;;25.40;77.40;;;;;;5016001;28;20018;-43
2021/07/17 03:02:13;;;;;;;19.35;16.05;;;25.40;77.40;;;;;;5016316;28;20406;-44
2021/07/17 03:04:38;;;;;;;19.75;16.70;;;25.40;77.30;;;;;;5015748;28;20080;-44
2021/07/17 03:07:04;;;;;;;23.23;17.80;;;25.40;77.30;;;;;;5016369;28;20022;-45
2021/07/17 03:09:30;;;;;;;19.85;17.02;;;25.50;77.30;;;;;;5016158;28;20034;-36
2021/07/17 03:11:56;;;;;;;21.50;16.95;;;25.40;77.10;;;;;;5015839;28;20358;-38
2021/07/17 03:14:21;;;;;;;20.17;17.17;;;25.40;77.10;;;;;;5015606;28;20049;-43
2021/07/17 03:16:47;;;;;;;24.42;18.05;;;25.40;77.20;;;;;;5015698;28;20171;-37
2021/07/17 03:19:13;;;;;;;21.02;17.08;;;25.40;77.30;;;;;;5015834;28;20029;-36
2021/07/17 03:21:39;;;;;;;18.90;15.80;;;25.40;77.20;;;;;;5015860;28;20436;-43
2021/07/17 03:24:05;;;;;;;21.55;16.05;;;25.40;77.30;;;;;;5015939;28;20111;-36
2021/07/17 03:26:31;;;;;;;23.17;18.55;;;25.40;77.40;;;;;;5015921;28;20062;-44
2021/07/17 03:28:57;;;;;;;20.60;17.00;;;25.50;77.30;;;;;;5015668;28;20034;-43
2021/07/17 03:31:30;;;;;;;19.30;17.30;;;25.40;77.20;;;;;;5015716;28;20322;-37
2021/07/17 03:33:57;;;;;;;21.80;17.85;;;25.40;77.10;;;;;;5015637;28;20137;-45
2021/07/17 03:36:24;;;;;;;21.33;16.88;;;25.50;77.30;;;;;;5015992;28;20041;-36
2021/07/17 03:38:50;;;;;;;17.92;16.02;;;25.50;77.30;;;;;;5015204;28;20041;-43
2021/07/17 03:41:17;;;;;;;21.13;18.67;;;25.50;77.40;;;;;;5016064;28;20031;-37
2021/07/17 03:43:43;;;;;;;21.80;18.38;;;25.60;77.40;;;;;;5015691;28;20072;-36
2021/07/17 03:46:09;;;;;;;18.42;15.15;;;25.60;77.20;;;;;;5015573;28;20045;-36
2021/07/17 03:48:35;;;;;;;16.95;15.13;;;25.60;77.30;;;;;;5015687;28;20429;-36
2021/07/17 03:51:00;;;;;;;21.20;16.05;;;25.70;77.30;;;;;;5015622;28;20048;-43
2021/07/17 03:53:27;;;;;;;18.77;15.48;;;25.70;77.40;;;;;;5015482;28;20068;-45
2021/07/17 03:55:52;;;;;;;20.13;17.35;;;25.80;77.40;;;;;;5017002;28;20088;-44
2021/07/17 03:58:18;;;;;;;20.77;17.35;;;25.80;77.30;;;;;;5017952;28;20381;-36
2021/07/17 04:00:43;;;;;;;22.65;17.65;;;25.80;77.30;;;;;;5019409;28;20041;-36
2021/07/17 04:03:09;;;;;;;18.13;16.20;;;25.90;77.20;;;;;;5019062;28;20088;-36
2021/07/17 04:05:35;;;;;;;20.98;17.40;;;25.90;77.30;;;;;;5019255;28;20030;-36
2021/07/17 04:08:00;;;;;;;19.38;16.15;;;26.00;77.10;;;;;;5019158;28;20398;-44
2021/07/17 04:10:26;;;;;;;19.77;16.63;;;26.00;77.00;;;;;;5019156;28;20026;-37
2021/07/17 04:12:52;;;;;;;22.35;17.42;;;26.10;77.10;;;;;;5019056;28;20337;-37
2021/07/17 04:15:17;;;;;;;22.40;18.42;;;26.10;77.10;;;;;;5018271;28;20056;-36
2021/07/17 04:17:43;;;;;;;22.30;19.60;;;26.10;77.20;;;;;;5018838;28;20159;-36
2021/07/17 04:20:10;;;;;;;19.77;16.58;;;26.10;77.00;;;;;;5018376;28;20030;-36
2021/07/17 04:22:36;;;;;;;20.08;17.15;;;26.20;77.00;;;;;;5018389;28;20038;-45
2021/07/17 04:25:03;;;;;;;19.30;17.30;;;26.20;77.50;;;;;;5018531;28;20033;-44
2021/07/17 04:27:29;;;;;;;22.27;17.00;;;26.20;76.90;;;;;;5018940;28;20441;-44
2021/07/17 04:29:55;;;;;;;22.83;16.40;;;26.20;76.90;;;;;;5018230;28;20042;-43
2021/07/17 04:32:21;;;;;;;22.48;16.40;;;26.30;77.10;;;;;;5018847;28;20033;-36
2021/07/17 04:34:46;;;;;;;21.52;16.52;;;26.30;77.00;;;;;;5018276;28;20030;-36
2021/07/17 04:37:16;;;;;;;18.50;15.85;;;26.40;77.00;;;;;;5018474;28;20349;-43
2021/07/17 04:39:43;;;;;;;23.98;17.00;;;26.50;77.00;;;;;;5018095;28;20034;-36
2021/07/17 04:42:09;;;;;;;20.88;17.63;;;26.50;76.80;;;;;;5018183;28;20026;-37
2021/07/17 04:44:35;;;;;;;17.85;15.55;;;26.60;77.10;;;;;;5017755;28;20317;-36
2021/07/17 04:47:01;;;;;;;19.48;14.88;;;26.60;76.40;;;;;;5018203;28;20022;-44
2021/07/17 04:49:26;;;;;;;19.55;13.93;;;26.70;76.00;;;;;;5018336;28;20033;-44
2021/07/17 04:51:52;;;;;;;15.90;14.23;;;26.80;75.70;;;;;;5018098;28;20087;-36
2021/07/17 04:54:17;;;;;;;14.57;12.98;;;26.80;75.10;;;;;;5016807;28;20038;-38
2021/07/17 04:56:43;;;;;;;14.23;12.15;;;26.80;74.60;;;;;;5018053;28;20092;-38
2021/07/17 04:59:09;;;;;;;17.15;14.63;;;26.90;74.40;;;;;;5017756;28;20054;-44
2021/07/17 05:01:35;;;;;;;16.48;12.68;;;26.90;74.10;;;;;;5017408;28;20104;-45
2021/07/17 05:04:01;;;;;;;16.35;13.23;;;27.00;73.60;;;;;;5017756;28;20091;-36
2021/07/17 05:06:26;;;;;;;16.83;14.65;;;27.10;73.20;;;;;;5017464;28;20422;-45
2021/07/17 05:08:52;;;;;;;16.40;13.02;;;27.20;73.00;;;;;;5016873;28;20179;-45
2021/07/17 05:11:17;;;;;;;16.25;12.30;;;27.20;72.50;;;;;;5017874;28;20030;-37
2021/07/17 05:13:43;;;;;;;16.45;12.70;;;27.30;72.10;;;;;;5017800;28;20038;-41
2021/07/17 05:16:09;;;;;;;17.33;12.35;;;27.30;71.80;;;;;;5017308;28;20050;-39
2021/07/17 05:18:35;;;;;;;15.57;12.07;;;27.40;71.70;;;;;;5016321;28;20034;-44
2021/07/17 05:21:01;;;;;;;17.27;13.48;;;27.40;71.60;;;;;;5017721;28;20054;-38
2021/07/17 05:23:27;;;;;;;19.83;14.43;;;27.50;71.20;;;;;;5017592;28;20030;-37
2021/07/17 05:25:52;;;;;;;20.05;12.68;;;27.50;71.00;;;;;;5017603;28;20036;-37
2021/07/17 05:28:20;;;;;;;15.43;12.70;;;27.50;70.30;;;;;;5017253;28;20059;-45
2021/07/17 05:30:46;;;;;;;13.90;11.48;;;27.60;70.60;;;;;;5017618;28;20030;-44
2021/07/17 05:33:12;;;;;;;16.75;13.13;;;27.60;70.80;;;;;;5017369;28;20474;-36
2021/07/17 05:35:38;;;;;;;17.40;13.80;;;27.60;70.70;;;;;;5017335;28;20097;-43
2021/07/17 05:38:04;;;;;;;15.77;12.48;;;27.70;70.50;;;;;;5016930;28;20439;-37
2021/07/17 05:40:30;;;;;;;14.45;12.27;;;27.70;70.20;;;;;;5017201;28;20021;-37
2021/07/17 05:42:56;;;;;;;16.98;12.63;;;27.70;70.00;;;;;;5017294;28;20125;-37
2021/07/17 05:45:22;;;;;;;16.63;13.05;;;27.80;70.20;;;;;;5016652;28;20022;-44
2021/07/17 05:47:48;;;;;;;14.38;12.75;;;27.80;70.00;;;;;;5017219;28;20034;-37
2021/07/17 05:50:14;;;;;;;18.88;12.93;;;27.80;69.60;;;;;;5015583;28;20149;-37
2021/07/17 05:52:40;;;;;;;15.35;12.77;;;27.80;69.70;;;;;;5017221;28;20056;-37
2021/07/17 05:55:06;;;;;;;14.02;12.30;;;27.90;69.80;;;;;;5016634;28;20109;-44
2021/07/17 05:57:32;;;;;;;15.10;12.60;;;27.90;69.80;;;;;;5016731;28;20076;-37
2021/07/17 05:59:59;;;;;;;16.92;13.13;;;28.00;69.60;;;;;;5016428;28;20424;-43
2021/07/17 06:02:25;;;;;;;15.45;12.45;;;28.00;69.70;;;;;;5016994;28;20044;-37
2021/07/17 06:04:51;;;;;;;14.70;12.27;;;28.00;69.40;;;;;;5016543;28;20025;-44
2021/07/17 06:07:16;;;;;;;14.18;12.70;;;28.00;69.60;;;;;;5016819;28;20480;-37
2021/07/17 06:09:43;;;;;;;13.32;12.00;;;28.10;69.70;;;;;;5016379;28;20064;-43
2021/07/17 06:12:10;;;;;;;14.35;12.18;;;28.10;69.50;;;;;;5016723;28;20116;-45
2021/07/17 06:14:37;;;;;;;14.55;13.02;;;28.20;69.40;;;;;;5016398;28;20081;-43
2021/07/17 06:17:03;;;;;;;17.80;12.95;;;28.20;69.20;;;;;;5016710;28;20095;-44
2021/07/17 06:19:29;;;;;;;13.93;12.52;;;28.30;69.00;;;;;;5015753;28;20438;-43
2021/07/17 06:21:55;;;;;;;17.60;12.70;;;28.30;68.50;;;;;;5016213;28;20061;-37
2021/07/17 06:24:21;;;;;;;13.45;11.50;;;28.30;68.40;;;;;;5015836;28;20321;-43
2021/07/17 06:26:46;;;;;;;16.02;12.27;;;28.40;68.80;;;;;;5028108;28;20030;-37
2021/07/17 06:29:12;;;;;;;15.10;12.60;;;28.40;68.60;;;;;;5008877;28;20469;-37
2021/07/17 06:31:38;;;;;;;20.58;17.27;;;28.50;68.70;;;;;;4995757;28;20026;-44
2021/07/17 06:34:04;;;;;;;22.70;19.17;;;28.50;67.60;;;;;;4995997;28;20038;-37
2021/07/17 06:36:30;;;;;;;19.63;17.50;;;28.60;67.80;;;;;;4996917;28;20101;-36
2021/07/17 06:38:56;;;;;;;15.57;13.00;;;28.70;67.80;;;;;;4996301;28;20031;-43
2021/07/17 06:41:22;;;;;;;23.42;20.85;;;28.70;67.90;;;;;;4996680;28;20022;-37
2021/07/17 06:43:48;;;;;;;19.17;14.75;;;28.80;67.20;;;;;;4996296;28;20089;-43
2021/07/17 06:46:14;;;;;;;19.88;17.08;;;28.80;67.50;;;;;;4996697;28;20042;-37
2021/07/17 06:48:40;;;;;;;16.77;13.50;;;28.80;66.90;;;;;;4996386;28;20322;-43
2021/07/17 06:51:08;;;;;;;18.33;13.68;;;28.90;66.90;;;;;;4996299;28;20030;-37
2021/07/17 06:53:35;;;;;;;19.98;15.15;;;28.90;67.20;;;;;;4996162;28;20042;-43
2021/07/17 06:56:00;;;;;;;17.23;14.10;;;29.00;66.90;;;;;;4996114;28;20034;-36
2021/07/17 06:58:26;;;;;;;21.35;16.67;;;29.00;66.20;;;;;;4996127;28;20034;-44
2021/07/17 07:00:52;;;;;;;14.73;12.75;;;29.10;65.90;;;;;;4996066;28;20030;-44
2021/07/17 07:03:17;;;;;;;17.35;13.38;;;29.10;66.30;;;;;;4996021;28;20038;-42
2021/07/17 07:05:43;;;;;;;16.00;14.32;;;29.10;66.00;;;;;;4994965;28;20065;-44
2021/07/17 07:08:09;;;;;;;16.77;13.18;;;29.20;65.70;;;;;;4995893;28;20058;-44
2021/07/17 07:10:34;;;;;;;16.88;13.35;;;29.20;65.80;;;;;;4995704;28;20053;-37
2021/07/17 07:13:08;;;;;;;16.77;12.82;;;29.20;65.40;;;;;;4996010;28;20121;-42
2021/07/17 07:15:34;;;;;;;14.65;13.13;;;29.30;65.10;;;;;;4995977;28;20054;-37
2021/07/17 07:18:00;;;;;;;17.23;12.20;;;29.30;64.80;;;;;;4995555;28;20125;-37
2021/07/17 07:20:25;;;;;;;14.43;11.88;;;29.30;64.90;;;;;;4995634;28;20474;-37
2021/07/17 07:22:51;;;;;;;16.08;12.90;;;29.40;65.00;;;;;;4996251;28;20034;-43
2021/07/17 07:25:17;;;;;;;18.92;14.43;;;29.40;64.90;;;;;;4995773;28;20037;-42
2021/07/17 07:27:42;;;;;;;17.42;12.20;;;29.40;63.80;;;;;;4996165;28;20354;-38
2021/07/17 07:30:08;;;;;;;15.20;12.32;;;29.50;63.70;;;;;;4995623;28;20045;-43
2021/07/17 07:32:34;;;;;;;14.57;13.07;;;29.50;63.50;;;;;;4999994;28;20030;-44
2021/07/17 07:34:59;;;;;;;13.63;12.07;;;29.60;63.30;;;;;;4999527;28;20411;-36
2021/07/17 07:37:27;;;;;;;14.27;12.77;;;29.60;64.00;;;;;;4999795;28;20061;-43
2021/07/17 07:39:54;;;;;;;12.40;10.75;;;29.60;62.60;;;;;;4999143;28;20038;-42
2021/07/17 07:42:20;;;;;;;13.32;10.88;;;29.60;63.60;;;;;;4999880;28;20149;-42
2021/07/17 07:44:46;;;;;;;14.35;11.85;;;29.70;63.40;;;;;;4999819;28;20446;-43
2021/07/17 07:47:11;;;;;;;15.02;12.48;;;29.70;63.50;;;;;;4999822;28;20027;-37
2021/07/17 07:49:37;;;;;;;11.93;10.73;;;29.80;63.00;;;;;;4999453;28;20412;-37
2021/07/17 07:52:03;;;;;;;11.98;10.75;;;29.80;62.80;;;;;;5006647;28;20113;-43
2021/07/17 07:54:29;;;;;;;12.85;11.10;;;29.90;62.60;;;;;;5019397;28;20143;-37
2021/07/17 07:56:54;;;;;;;11.75;10.55;;;29.90;62.60;;;;;;5019194;28;20410;-44
2021/07/17 07:59:20;;;;;;;15.52;12.68;;;29.90;62.90;;;;;;5019105;28;20038;-42
2021/07/17 08:01:46;;;;;;;12.68;10.73;;;30.00;62.00;;;;;;5019196;28;20050;-37
2021/07/17 08:04:11;;;;;;;13.45;12.05;;;30.10;62.10;;;;;;5019100;28;20317;-42
2021/07/17 08:06:37;;;;;;;11.63;10.43;;;30.10;62.00;;;;;;5018988;28;20488;-42
2021/07/17 08:09:03;;;;;;;12.40;11.10;;;30.10;62.00;;;;;;5019021;28;20030;-43
2021/07/17 08:11:29;;;;;;;14.93;11.88;;;30.20;61.70;;;;;;5018978;28;20026;-43
2021/07/17 08:13:55;;;;;;;13.32;10.23;;;30.20;61.50;;;;;;5018496;28;20121;-37
2021/07/17 08:16:21;;;;;;;15.57;12.82;;;30.20;61.40;;;;;;5017483;28;20331;-38
2021/07/17 08:18:47;;;;;;;13.75;10.82;;;30.30;61.10;;;;;;5018793;28;20125;-37
2021/07/17 08:21:13;;;;;;;13.38;10.82;;;30.30;61.00;;;;;;5014353;28;20097;-37
2021/07/17 08:23:38;;;;;;;17.02;13.80;;;30.30;60.60;;;;;;5018525;28;20354;-37
2021/07/17 08:26:04;;;;;;;15.02;13.50;;;30.40;60.60;;;;;;5018392;28;20034;-42
2021/07/17 08:28:30;;;;;;;14.60;13.07;;;30.40;60.70;;;;;;5018364;28;20539;-42
2021/07/17 08:30:55;;;;;;;15.32;12.60;;;30.40;60.90;;;;;;5017956;28;20393;-42
2021/07/17 08:33:21;;;;;;;12.85;11.45;;;30.40;61.00;;;;;;5018144;28;20030;-42
2021/07/17 08:35:47;;;;;;;11.95;9.88;;;30.50;60.30;;;;;;5017693;28;20417;-42
2021/07/17 08:38:12;;;;;;;21.52;19.20;;;30.50;60.20;;;;;;5017975;28;20390;-42
2021/07/17 08:40:38;;;;;;;14.30;12.82;;;30.50;60.00;;;;;;5017587;28;20100;-42
2021/07/17 08:43:04;;;;;;;10.88;9.77;;;30.60;59.70;;;;;;5017781;28;20038;-37
2021/07/17 08:45:29;;;;;;;16.50;10.20;;;30.60;59.60;;;;;;5017257;28;20029;-36
2021/07/17 08:47:57;;;;;;;11.63;9.93;;;30.70;59.00;;;;;;5018163;28;20045;-37
2021/07/17 08:50:25;;;;;;;13.35;11.93;;;30.70;59.60;;;;;;5017179;28;20080;-42
2021/07/17 08:52:54;;;;;;;19.45;10.23;;;30.80;59.70;;;;;;5018243;28;20424;-43
2021/07/17 08:55:20;;;;;;;10.85;8.75;;;30.80;59.70;;;;;;5017507;28;20041;-37
2021/07/17 08:57:46;;;;;;;13.52;11.48;;;30.80;59.10;;;;;;5017979;28;20155;-42
2021/07/17 09:00:15;;;;;;;11.93;9.90;;;30.90;58.70;;;;;;5016759;28;20058;-42
2021/07/17 09:02:43;;;;;;;12.77;10.15;;;30.90;58.70;;;;;;5017917;28;20036;-42
2021/07/17 09:05:13;;;;;;;11.88;10.38;;;31.00;58.90;;;;;;5016795;28;20033;-37
2021/07/17 09:07:39;;;;;;;10.18;9.10;;;31.10;58.80;;;;;;5016606;28;20036;-37
2021/07/17 09:10:25;;;;;;;11.13;9.93;;;31.10;58.40;;;;;;5016781;28;20040;-37
2021/07/17 09:13:11;;;;;;;10.82;9.73;;;31.20;57.50;;;;;;5017147;28;20050;-42
2021/07/17 09:15:39;;;;;;;11.40;10.30;;;31.20;57.80;;;;;;5016887;28;20061;-37
2021/07/17 09:18:06;;;;;;;9.40;8.27;;;31.30;57.70;;;;;;5017264;28;20045;-37
2021/07/17 09:20:32;;;;;;;11.88;9.52;;;31.40;57.10;;;;;;5017237;28;20121;-43
2021/07/17 09:23:00;;;;;;;9.68;8.77;;;31.40;57.10;;;;;;5017025;28;20058;-37
2021/07/17 09:25:36;;;;;;;10.65;8.30;;;31.50;57.60;;;;;;5017432;28;20088;-43
2021/07/17 09:28:15;;;;;;;10.27;8.88;;;31.50;56.40;;;;;;5015697;28;20038;-43
2021/07/17 09:30:41;;;;;;;10.93;9.10;;;31.60;56.40;;;;;;5017380;28;20034;-43
2021/07/17 09:33:07;;;;;;;11.85;9.82;;;31.70;56.80;;;;;;5015118;28;20041;-42
2021/07/17 09:35:34;;;;;;;10.73;9.48;;;31.70;56.00;;;;;;5016639;28;20034;-43
2021/07/17 09:38:02;;;;;;;11.00;8.38;;;31.80;55.90;;;;;;5017030;28;20042;-40
2021/07/17 09:41:07;;;;;;;11.43;9.57;;;31.80;55.70;;;;;;5017219;28;20267;-42
2021/07/17 09:43:43;;;;;;;10.10;8.55;;;31.90;55.20;;;;;;5013518;28;20378;-37
2021/07/17 09:46:35;;;;;;;12.05;8.63;;;31.90;55.20;;;;;;5017097;28;20088;-41
2021/07/17 09:49:03;;;;;;;9.30;8.32;;;31.90;54.90;;;;;;5013129;28;20295;-42
2021/07/17 09:51:31;;;;;;;9.75;7.68;;;31.90;54.40;;;;;;5016987;28;20026;-43
2021/07/17 09:54:06;;;;;;;9.10;7.90;;;31.90;54.30;;;;;;5015921;28;20042;-42
2021/07/17 09:56:38;;;;;;;9.35;8.43;;;32.00;54.30;;;;;;5016756;28;20461;-37
2021/07/17 09:59:05;;;;;;;9.98;7.75;;;32.00;54.60;;;;;;5016184;28;20120;-37
2021/07/17 10:01:33;;;;;;;9.95;7.95;;;32.00;54.70;;;;;;5017002;28;20064;-43
2021/07/17 10:04:05;;;;;;;13.20;8.40;;;32.00;53.90;;;;;;5016588;28;20032;-37
2021/07/17 10:06:43;;;;;;;11.07;8.75;;;32.10;53.80;;;;;;5016989;28;20026;-42
2021/07/17 10:09:12;;;;;;;8.88;7.97;;;32.10;53.30;;;;;;5016842;28;20037;-37
2021/07/17 10:11:38;;;;;;;13.30;9.00;;;32.10;53.50;;;;;;5016882;28;20029;-37
2021/07/17 10:14:28;;;;;;;12.50;8.80;;;32.10;53.80;;;;;;5011942;28;20414;-43
2021/07/17 10:16:55;;;;;;;;;;;32.20;53.80;;;;;;5017042;28;20053;-42
2021/07/17 10:19:27;;;;;;;10.13;7.93;;;32.10;54.20;;;;;;5016286;28;19920;-37
2021/07/17 10:21:55;;;;;;;9.50;8.50;;;32.10;54.10;;;;;;5015742;28;20033;-42
2021/07/17 10:24:22;;;;;;;14.00;8.15;;;32.10;53.80;;;;;;5016166;28;20030;-42
2021/07/17 10:26:49;;;;;;;11.15;8.65;;;32.10;53.90;;;;;;5016476;28;20164;-37
2021/07/17 10:29:16;;;;;;;10.60;8.18;;;32.20;53.80;;;;;;5016081;28;20421;-37
2021/07/17 10:31:43;;;;;;;9.38;8.48;;;32.20;53.30;;;;;;5016149;28;20030;-37
2021/07/17 10:34:09;;;;;;;12.52;9.40;;;32.20;53.30;;;;;;5015453;28;20049;-37
2021/07/17 10:36:48;;;;;;;8.68;7.28;;;32.30;53.70;;;;;;5016124;28;20026;-37
2021/07/17 10:39:15;;;;;;;9.32;7.82;;;32.40;53.40;;;;;;5015734;28;20037;-37
2021/07/17 10:41:44;;;;;;;9.90;8.77;;;32.40;53.20;;;;;;5016040;28;20030;-41
2021/07/17 10:44:10;;;;;;;10.23;8.18;;;32.40;53.10;;;;;;5015303;28;20045;-36
2021/07/17 10:46:39;;;;;;;12.48;8.48;;;32.50;53.00;;;;;;5015961;28;20049;-42
2021/07/17 10:49:10;;;;;;;9.52;8.20;;;32.50;53.00;;;;;;5015450;28;20033;-37
2021/07/17 10:51:41;;;;;;;9.25;7.22;;;32.60;53.10;;;;;;5015700;28;20057;-43
2021/07/17 10:54:08;;;;;;;10.32;7.80;;;32.60;53.20;;;;;;5014918;28;20319;-37
2021/07/17 10:56:44;;;;;;;9.27;7.72;;;32.70;52.50;;;;;;5015681;28;20303;-37
2021/07/17 10:59:13;;;;;;;12.10;7.72;;;32.80;51.90;;;;;;5014853;28;20034;-37
2021/07/17 11:01:57;;;;;;;9.52;8.27;;;32.90;51.50;;;;;;5010405;28;20347;-42
2021/07/17 11:04:55;;;;;;;9.82;7.10;;;33.10;51.90;;;;;;5015123;28;20036;-37
2021/07/17 11:07:23;;;;;;;8.85;7.47;;;33.20;52.10;;;;;;5015779;28;20030;-37
2021/07/17 11:10:08;;;;;;;8.80;7.32;;;33.20;51.50;;;;;;5015374;28;20088;-43
2021/07/17 11:12:45;;;;;;;9.00;7.40;;;33.30;51.60;;;;;;5015494;28;20038;-41
2021/07/17 11:15:10;;;;;;;8.52;7.55;;;33.30;51.30;;;;;;5014983;28;20219;-42
2021/07/17 11:17:49;;;;;;;8.18;7.38;;;33.30;50.90;;;;;;5015415;28;20165;-42
2021/07/17 11:20:23;;;;;;;10.43;7.88;;;33.30;50.80;;;;;;5015100;28;20037;-42
2021/07/17 11:23:13;;;;;;;7.80;7.10;;;33.30;50.80;;;;;;5015498;28;20041;-42
2021/07/17 11:25:50;;;;;;;13.07;7.60;;;33.20;51.10;;;;;;5015131;28;20037;-42
2021/07/17 11:28:47;;;;;;;9.18;7.60;;;33.20;51.00;;;;;;5015269;28;20100;-42
2021/07/17 11:31:44;;;;;;;10.27;9.27;;;33.20;51.20;;;;;;5015528;28;20029;-37
2021/07/17 11:34:10;;;;;;;10.77;8.50;;;33.30;51.70;;;;;;5014487;28;20046;-42
2021/07/17 11:36:37;;;;;;;10.52;8.98;;;33.30;51.50;;;;;;5015383;28;20022;-41
2021/07/17 11:39:05;;;;;;;10.25;8.70;;;33.40;51.30;;;;;;5015356;28;20038;-41
2021/07/17 11:41:31;;;;;;;8.80;7.88;;;33.50;51.40;;;;;;5015416;28;20025;-42
2021/07/17 11:43:57;;;;;;;8.90;7.15;;;33.60;50.80;;;;;;5015358;28;20100;-43
2021/07/17 11:46:22;;;;;;;12.15;8.13;;;33.70;50.70;;;;;;5015483;28;20146;-42
2021/07/17 11:49:08;;;;;;;8.48;7.57;;;33.80;50.30;;;;;;5015083;28;20370;-41
2021/07/17 11:51:46;;;;;;;11.30;7.20;;;33.90;49.80;;;;;;5014624;28;20437;-36
2021/07/17 11:54:21;;;;;;;9.57;8.57;;;34.00;49.50;;;;;;5014910;28;20037;-41
2021/07/17 11:57:01;;;;;;;8.32;7.45;;;34.20;49.50;;;;;;5015344;28;20030;-37
2021/07/17 11:59:26;;;;;;;9.82;8.90;;;34.40;48.60;;;;;;5015354;28;20306;-36
2021/07/17 12:02:05;;;;;;;12.45;8.48;;;34.60;49.20;;;;;;5010994;28;20026;-42
2021/07/17 12:04:35;;;;;;;9.15;7.40;;;34.80;49.30;;;;;;5015043;28;20120;-41
2021/07/17 12:07:08;;;;;;;10.73;9.63;;;34.90;48.20;;;;;;5014965;28;20028;-41
2021/07/17 12:09:40;;;;;;;12.10;8.70;;;35.10;48.30;;;;;;5014161;28;20034;-41
2021/07/17 12:12:31;;;;;;;10.05;8.77;;;35.20;48.10;;;;;;5014628;28;20037;-37
2021/07/17 12:15:09;;;;;;;8.77;7.80;;;35.50;47.90;;;;;;5014671;28;20137;-43
2021/07/17 12:17:47;;;;;;;9.40;6.95;;;35.60;46.90;;;;;;5017490;28;20036;-37
2021/07/17 12:20:17;;;;;;;7.78;6.85;;;35.80;45.50;;;;;;5017702;28;20022;-37
2021/07/17 12:23:03;;;;;;;9.30;7.78;;;35.90;45.50;;;;;;5018517;28;20041;-36
2021/07/17 12:25:35;;;;;;;9.77;7.13;;;36.10;45.90;;;;;;5017817;28;20038;-36
2021/07/17 12:28:13;;;;;;;8.00;7.05;;;36.20;45.60;;;;;;5018889;28;20045;-41
2021/07/17 12:30:52;;;;;;;8.65;6.82;;;36.30;45.50;;;;;;5018125;28;20496;-41
2021/07/17 12:33:36;;;;;;;9.45;8.38;;;36.40;45.20;;;;;;5018307;28;20046;-41
2021/07/17 12:36:07;;;;;;;12.02;8.00;;;36.40;45.40;;;;;;5018143;28;20022;-41